sensor_id;sensor_type;location;lat;lon;timestamp;pressure;altitude;pressure_sealevel;temperature;humidity
84967;BME280;75275;51.348;12.358;2024-03-02T00:01:44;99404.66;;;8.41;72.83
84967;BME280;75275;51.348;12.358;2024-03-02T00:04:14;99406.56;;;8.46;72.50
84967;BME280;75275;51.348;12.358;2024-03-02T00:06:43;99407.09;;;8.48;71.64
84967;BME280;75275;51.348;12.358;2024-03-02T00:09:10;99406.56;;;8.46;71.86
84967;BME280;75275;51.348;12.358;2024-03-02T00:11:38;99407.66;;;8.45;72.70
84967;BME280;75275;51.348;12.358;2024-03-02T00:14:06;99408.19;;;8.47;72.63
84967;BME280;75275;51.348;12.358;2024-03-02T00:16:34;99405.97;;;8.49;71.92
84967;BME280;75275;51.348;12.358;2024-03-02T00:19:02;99401.66;;;8.43;72.82
84967;BME280;75275;51.348;12.358;2024-03-02T00:21:31;99406.03;;;8.44;72.15
84967;BME280;75275;51.348;12.358;2024-03-02T00:23:59;99401.09;;;8.46;73.15
84967;BME280;75275;51.348;12.358;2024-03-02T00:26:29;99401.09;;;8.46;73.70
84967;BME280;75275;51.348;12.358;2024-03-02T00:28:56;99404.34;;;8.48;73.89
84967;BME280;75275;51.348;12.358;2024-03-02T00:31:23;99401.09;;;8.46;73.76
84967;BME280;75275;51.348;12.358;2024-03-02T00:33:53;99404.91;;;8.45;73.81
84967;BME280;75275;51.348;12.358;2024-03-02T00:36:24;99396.72;;;8.45;73.48
84967;BME280;75275;51.348;12.358;2024-03-02T00:38:55;99395.09;;;8.44;73.78
84967;BME280;75275;51.348;12.358;2024-03-02T00:41:25;99397.28;;;8.47;73.96
84967;BME280;75275;51.348;12.358;2024-03-02T00:43:57;99385.81;;;8.45;73.46
84967;BME280;75275;51.348;12.358;2024-03-02T00:46:27;99386.09;;;8.43;73.31
84967;BME280;75275;51.348;12.358;2024-03-02T00:48:56;99383.63;;;8.42;74.07
84967;BME280;75275;51.348;12.358;2024-03-02T00:51:24;99383.38;;;8.38;73.84
84967;BME280;75275;51.348;12.358;2024-03-02T00:53:52;99382.00;;;8.36;73.59
84967;BME280;75275;51.348;12.358;2024-03-02T00:56:23;99386.09;;;8.38;74.49
84967;BME280;75275;51.348;12.358;2024-03-02T00:58:50;99382.56;;;8.38;74.47
84967;BME280;75275;51.348;12.358;2024-03-02T01:01:17;99390.22;;;8.36;74.45
84967;BME280;75275;51.348;12.358;2024-03-02T01:03:45;99388.03;;;8.38;73.90
84967;BME280;75275;51.348;12.358;2024-03-02T01:06:14;99379.84;;;8.38;74.63
84967;BME280;75275;51.348;12.358;2024-03-02T01:08:43;99380.91;;;8.37;74.31
84967;BME280;75275;51.348;12.358;2024-03-02T01:11:10;99386.38;;;8.37;75.17
84967;BME280;75275;51.348;12.358;2024-03-02T01:13:41;99382.56;;;8.38;74.48
84967;BME280;75275;51.348;12.358;2024-03-02T01:16:08;99373.81;;;8.36;75.03
84967;BME280;75275;51.348;12.358;2024-03-02T01:18:35;99379.56;;;8.39;74.79
84967;BME280;75275;51.348;12.358;2024-03-02T01:21:05;99369.97;;;8.42;75.59
84967;BME280;75275;51.348;12.358;2024-03-02T01:23:32;99366.44;;;8.41;74.89
84967;BME280;75275;51.348;12.358;2024-03-02T01:26:00;99378.16;;;8.42;74.36
84967;BME280;75275;51.348;12.358;2024-03-02T01:28:27;99380.38;;;8.40;74.55
84967;BME280;75275;51.348;12.358;2024-03-02T01:30:56;99377.09;;;8.38;74.64
84967;BME280;75275;51.348;12.358;2024-03-02T01:33:23;99383.09;;;8.35;74.56
84967;BME280;75275;51.348;12.358;2024-03-02T01:35:50;99377.63;;;8.35;75.04
84967;BME280;75275;51.348;12.358;2024-03-02T01:38:17;99384.75;;;8.36;75.40
84967;BME280;75275;51.348;12.358;2024-03-02T01:40:48;99382.00;;;8.36;74.96
84967;BME280;75275;51.348;12.358;2024-03-02T01:43:15;99368.38;;;8.36;74.93
84967;BME280;75275;51.348;12.358;2024-03-02T01:45:42;99385.31;;;8.33;74.30
84967;BME280;75275;51.348;12.358;2024-03-02T01:48:11;99386.94;;;8.34;74.98
84967;BME280;75275;51.348;12.358;2024-03-02T01:50:38;99382.03;;;8.31;74.68
84967;BME280;75275;51.348;12.358;2024-03-02T01:53:05;99377.13;;;8.28;75.02
84967;BME280;75275;51.348;12.358;2024-03-02T01:55:33;99379.34;;;8.26;75.23
84967;BME280;75275;51.348;12.358;2024-03-02T01:58:01;99376.91;;;8.19;75.12
84967;BME280;75275;51.348;12.358;2024-03-02T02:00:33;99373.38;;;8.18;74.65
84967;BME280;75275;51.348;12.358;2024-03-02T02:03:00;99378.88;;;8.08;75.76
84967;BME280;75275;51.348;12.358;2024-03-02T02:05:28;99375.66;;;8.01;75.30
84967;BME280;75275;51.348;12.358;2024-03-02T02:07:57;99376.19;;;8.03;76.27
84967;BME280;75275;51.348;12.358;2024-03-02T02:10:24;99381.09;;;8.06;75.20
84967;BME280;75275;51.348;12.358;2024-03-02T02:12:51;99378.88;;;8.08;74.88
84967;BME280;75275;51.348;12.358;2024-03-02T02:15:23;99376.72;;;8.05;75.04
84967;BME280;75275;51.348;12.358;2024-03-02T02:17:51;99379.44;;;8.05;75.49
84967;BME280;75275;51.348;12.358;2024-03-02T02:20:18;99379.41;;;8.15;75.09
84967;BME280;75275;51.348;12.358;2024-03-02T02:23:00;99368.16;;;8.22;74.28
84967;BME280;75275;51.348;12.358;2024-03-02T02:25:27;99370.91;;;8.22;74.93
84967;BME280;75275;51.348;12.358;2024-03-02T02:27:55;99368.69;;;8.24;75.13
84967;BME280;75275;51.348;12.358;2024-03-02T02:30:25;99371.41;;;8.29;74.51
84967;BME280;75275;51.348;12.358;2024-03-02T02:32:53;99372.22;;;8.30;73.94
84967;BME280;75275;51.348;12.358;2024-03-02T02:35:20;99368.94;;;8.33;74.44
84967;BME280;75275;51.348;12.358;2024-03-02T02:37:48;99368.38;;;8.31;74.29
84967;BME280;75275;51.348;12.358;2024-03-02T02:40:18;99372.16;;;8.35;74.52
84967;BME280;75275;51.348;12.358;2024-03-02T02:42:45;99369.72;;;8.43;73.44
84967;BME280;75275;51.348;12.358;2024-03-02T02:45:13;99368.91;;;8.43;73.82
84967;BME280;75275;51.348;12.358;2024-03-02T02:47:40;99365.31;;;8.48;73.72
84967;BME280;75275;51.348;12.358;2024-03-02T02:50:08;99363.69;;;8.47;73.25
84967;BME280;75275;51.348;12.358;2024-03-02T02:52:36;99354.69;;;8.41;73.51
84967;BME280;75275;51.348;12.358;2024-03-02T02:55:06;99357.44;;;8.41;73.90
84967;BME280;75275;51.348;12.358;2024-03-02T02:57:35;99367.56;;;8.35;73.14
84967;BME280;75275;51.348;12.358;2024-03-02T03:00:06;99371.91;;;8.31;73.70
84967;BME280;75275;51.348;12.358;2024-03-02T03:02:36;99367.31;;;8.32;74.02
84967;BME280;75275;51.348;12.358;2024-03-02T03:05:04;99365.09;;;8.34;74.15
84967;BME280;75275;51.348;12.358;2024-03-02T03:07:32;99361.00;;;8.31;74.01
84967;BME280;75275;51.348;12.358;2024-03-02T03:09:59;99368.69;;;8.29;74.44
84967;BME280;75275;51.348;12.358;2024-03-02T03:12:26;99353.91;;;8.30;73.48
84967;BME280;75275;51.348;12.358;2024-03-02T03:14:55;99359.63;;;8.34;73.91
84967;BME280;75275;51.348;12.358;2024-03-02T03:17:22;99353.34;;;8.33;73.32
84967;BME280;75275;51.348;12.358;2024-03-02T03:19:50;99361.84;;;8.32;73.43
84967;BME280;75275;51.348;12.358;2024-03-02T03:22:17;99362.66;;;8.32;73.33
84967;BME280;75275;51.348;12.358;2024-03-02T03:24:44;99353.59;;;8.37;74.34
84967;BME280;75275;51.348;12.358;2024-03-02T03:27:11;99364.25;;;8.38;74.14
84967;BME280;75275;51.348;12.358;2024-03-02T03:29:38;99378.47;;;8.40;74.14
84967;BME280;75275;51.348;12.358;2024-03-02T03:32:08;99372.44;;;8.38;73.71
84967;BME280;75275;51.348;12.358;2024-03-02T03:34:35;99374.91;;;8.40;73.39
84967;BME280;75275;51.348;12.358;2024-03-02T03:37:03;99367.25;;;8.42;73.13
84967;BME280;75275;51.348;12.358;2024-03-02T03:39:31;99375.97;;;8.44;73.33
84967;BME280;75275;51.348;12.358;2024-03-02T03:42:00;99386.91;;;8.44;73.39
84967;BME280;75275;51.348;12.358;2024-03-02T03:44:27;99375.97;;;8.44;72.88
84967;BME280;75275;51.348;12.358;2024-03-02T03:46:54;99379.81;;;8.43;73.08
84967;BME280;75275;51.348;12.358;2024-03-02T03:49:26;99385.28;;;8.38;73.57
84967;BME280;75275;51.348;12.358;2024-03-02T03:51:54;99388.03;;;8.28;73.58
84967;BME280;75275;51.348;12.358;2024-03-02T03:54:21;99389.69;;;8.29;73.15
84967;BME280;75275;51.348;12.358;2024-03-02T03:56:48;99394.66;;;8.22;73.14
84967;BME280;75275;51.348;12.358;2024-03-02T03:59:15;99407.16;;;8.28;73.77
84967;BME280;75275;51.348;12.358;2024-03-02T04:01:42;99394.34;;;8.28;73.56
84967;BME280;75275;51.348;12.358;2024-03-02T04:04:09;99391.38;;;8.25;73.15
84967;BME280;75275;51.348;12.358;2024-03-02T04:06:37;99389.19;;;8.22;73.61
84967;BME280;75275;51.348;12.358;2024-03-02T04:09:04;99389.69;;;8.29;73.87
84967;BME280;75275;51.348;12.358;2024-03-02T04:11:32;99385.88;;;8.30;73.58
84967;BME280;75275;51.348;12.358;2024-03-02T04:13:59;99396.81;;;8.25;73.49
84967;BME280;75275;51.348;12.358;2024-03-02T04:16:26;99403.69;;;8.17;73.38
84967;BME280;75275;51.348;12.358;2024-03-02T04:18:54;99405.84;;;8.20;74.04
84967;BME280;75275;51.348;12.358;2024-03-02T04:21:21;99399.03;;;8.17;73.80
84967;BME280;75275;51.348;12.358;2024-03-02T04:23:49;99399.03;;;8.17;73.84
84967;BME280;75275;51.348;12.358;2024-03-02T04:26:17;99399.56;;;8.19;73.37
84967;BME280;75275;51.348;12.358;2024-03-02T04:28:49;99399.56;;;8.19;73.66
84967;BME280;75275;51.348;12.358;2024-03-02T04:31:17;99408.31;;;8.16;73.41
84967;BME280;75275;51.348;12.358;2024-03-02T04:33:44;99413.78;;;8.16;73.92
84967;BME280;75275;51.348;12.358;2024-03-02T04:36:11;99420.34;;;8.15;73.73
84967;BME280;75275;51.348;12.358;2024-03-02T04:38:38;99426.91;;;8.14;73.76
84967;BME280;75275;51.348;12.358;2024-03-02T04:41:07;99425.81;;;8.10;73.40
84967;BME280;75275;51.348;12.358;2024-03-02T04:43:34;99426.91;;;8.09;74.08
84967;BME280;75275;51.348;12.358;2024-03-02T04:46:01;99425.28;;;8.13;72.96
84967;BME280;75275;51.348;12.358;2024-03-02T04:48:28;99432.91;;;8.11;73.39
84967;BME280;75275;51.348;12.358;2024-03-02T04:50:55;99433.47;;;8.13;73.31
84967;BME280;75275;51.348;12.358;2024-03-02T04:53:22;99433.19;;;8.10;73.30
84967;BME280;75275;51.348;12.358;2024-03-02T04:55:49;99434.53;;;8.12;73.30
84967;BME280;75275;51.348;12.358;2024-03-02T04:58:46;99430.16;;;8.16;73.20
84967;BME280;75275;51.348;12.358;2024-03-02T05:01:13;99427.72;;;8.15;73.44
84967;BME280;75275;51.348;12.358;2024-03-02T05:03:42;99432.09;;;8.11;73.47
84967;BME280;75275;51.348;12.358;2024-03-02T05:06:09;99425.84;;;8.05;73.92
84967;BME280;75275;51.348;12.358;2024-03-02T05:08:36;99425.03;;;8.05;74.12
84967;BME280;75275;51.348;12.358;2024-03-02T05:11:03;99431.03;;;8.02;73.22
84967;BME280;75275;51.348;12.358;2024-03-02T05:13:43;99427.47;;;8.06;73.71
84967;BME280;75275;51.348;12.358;2024-03-02T05:16:12;99430.22;;;8.06;74.26
84967;BME280;75275;51.348;12.358;2024-03-02T05:18:39;99432.09;;;8.06;73.39
84967;BME280;75275;51.348;12.358;2024-03-02T05:21:06;99446.59;;;8.06;73.63
84967;BME280;75275;51.348;12.358;2024-03-02T05:23:33;99441.69;;;8.03;72.91
84967;BME280;75275;51.348;12.358;2024-03-02T05:26:00;99442.25;;;8.00;73.54
84967;BME280;75275;51.348;12.358;2024-03-02T05:28:26;99440.88;;;8.03;74.12
84967;BME280;75275;51.348;12.358;2024-03-02T05:30:53;99441.69;;;8.03;73.56
84967;BME280;75275;51.348;12.358;2024-03-02T05:33:23;99436.22;;;8.03;73.62
84967;BME280;75275;51.348;12.358;2024-03-02T05:35:49;99447.16;;;8.03;72.64
84967;BME280;75275;51.348;12.358;2024-03-02T05:38:17;99453.41;;;8.04;72.80
84967;BME280;75275;51.348;12.358;2024-03-02T05:40:44;99452.03;;;8.06;73.48
84967;BME280;75275;51.348;12.358;2024-03-02T05:43:11;99452.03;;;8.06;73.10
84967;BME280;75275;51.348;12.358;2024-03-02T05:45:38;99446.59;;;8.01;73.47
84967;BME280;75275;51.348;12.358;2024-03-02T05:48:06;99458.06;;;8.03;73.19
84967;BME280;75275;51.348;12.358;2024-03-02T05:50:36;99456.91;;;8.09;72.19
84967;BME280;75275;51.348;12.358;2024-03-02T05:53:03;99467.28;;;8.12;72.92
84967;BME280;75275;51.348;12.358;2024-03-02T05:55:30;99461.00;;;8.17;73.31
84967;BME280;75275;51.348;12.358;2024-03-02T05:57:57;99465.06;;;8.19;72.95
84967;BME280;75275;51.348;12.358;2024-03-02T06:00:41;99468.88;;;8.29;72.63
84967;BME280;75275;51.348;12.358;2024-03-02T06:03:08;99466.94;;;8.29;71.79
84967;BME280;75275;51.348;12.358;2024-03-02T06:05:36;99469.41;;;8.31;71.90
84967;BME280;75275;51.348;12.358;2024-03-02T06:08:04;99475.91;;;8.35;71.60
84967;BME280;75275;51.348;12.358;2024-03-02T06:10:31;99474.59;;;8.37;71.66
84967;BME280;75275;51.348;12.358;2024-03-02T06:12:58;99479.50;;;8.40;71.74
84967;BME280;75275;51.348;12.358;2024-03-02T06:15:25;99482.50;;;8.39;72.01
84967;BME280;75275;51.348;12.358;2024-03-02T06:17:53;99482.78;;;8.42;71.49
84967;BME280;75275;51.348;12.358;2024-03-02T06:20:20;99477.56;;;8.46;71.63
84967;BME280;75275;51.348;12.358;2024-03-02T06:22:49;99484.09;;;8.45;71.75
84967;BME280;75275;51.348;12.358;2024-03-02T06:25:16;99493.38;;;8.49;71.79
84967;BME280;75275;51.348;12.358;2024-03-02T06:27:43;99490.63;;;8.54;71.46
84967;BME280;75275;51.348;12.358;2024-03-02T06:30:11;99492.25;;;8.55;71.77
84967;BME280;75275;51.348;12.358;2024-03-02T06:32:38;99484.09;;;8.50;71.61
84967;BME280;75275;51.348;12.358;2024-03-02T06:35:05;99487.09;;;8.49;71.69
84967;BME280;75275;51.348;12.358;2024-03-02T06:37:35;99495.56;;;8.47;71.50
84967;BME280;75275;51.348;12.358;2024-03-02T06:40:05;99492.56;;;8.49;71.18
84967;BME280;75275;51.348;12.358;2024-03-02T06:42:33;99486.81;;;8.50;71.56
84967;BME280;75275;51.348;12.358;2024-03-02T06:45:00;99483.75;;;8.57;71.64
84967;BME280;75275;51.348;12.358;2024-03-02T06:47:27;99483.75;;;8.57;71.30
84967;BME280;75275;51.348;12.358;2024-03-02T06:49:54;99485.38;;;8.63;70.76
84967;BME280;75275;51.348;12.358;2024-03-02T06:52:22;99485.63;;;8.66;70.33
84967;BME280;75275;51.348;12.358;2024-03-02T06:54:49;99491.59;;;8.74;70.97
84967;BME280;75275;51.348;12.358;2024-03-02T06:57:17;99482.84;;;8.77;70.60
84967;BME280;75275;51.348;12.358;2024-03-02T06:59:46;99487.19;;;8.83;70.86
84967;BME280;75275;51.348;12.358;2024-03-02T07:02:15;99478.38;;;8.91;70.04
84967;BME280;75275;51.348;12.358;2024-03-02T07:04:42;99492.00;;;8.96;69.94
84967;BME280;75275;51.348;12.358;2024-03-02T07:07:10;99482.38;;;9.04;70.24
84967;BME280;75275;51.348;12.358;2024-03-02T07:09:37;99485.91;;;9.09;69.51
84967;BME280;75275;51.348;12.358;2024-03-02T07:12:04;99479.00;;;9.17;70.03
84967;BME280;75275;51.348;12.358;2024-03-02T07:14:33;99473.50;;;9.22;69.75
84967;BME280;75275;51.348;12.358;2024-03-02T07:17:17;99476.53;;;9.21;68.95
84967;BME280;75275;51.348;12.358;2024-03-02T07:19:44;99478.16;;;9.22;69.30
84967;BME280;75275;51.348;12.358;2024-03-02T07:22:12;99480.88;;;9.22;68.71
84967;BME280;75275;51.348;12.358;2024-03-02T07:24:40;99481.19;;;9.20;69.37
84967;BME280;75275;51.348;12.358;2024-03-02T07:27:08;99488.03;;;9.18;69.03
84967;BME280;75275;51.348;12.358;2024-03-02T07:29:37;99489.13;;;9.16;69.24
84967;BME280;75275;51.348;12.358;2024-03-02T07:32:04;99496.28;;;9.07;69.09
84967;BME280;75275;51.348;12.358;2024-03-02T07:34:32;99499.88;;;9.08;69.38
84967;BME280;75275;51.348;12.358;2024-03-02T07:36:59;99505.09;;;9.04;69.47
84967;BME280;75275;51.348;12.358;2024-03-02T07:39:27;99508.97;;;8.93;69.94
84967;BME280;75275;51.348;12.358;2024-03-02T07:41:55;99515.84;;;8.90;70.08
84967;BME280;75275;51.348;12.358;2024-03-02T07:44:22;99509.22;;;8.97;70.03
84967;BME280;75275;51.348;12.358;2024-03-02T07:46:50;99510.81;;;9.08;69.35
84967;BME280;75275;51.348;12.358;2024-03-02T07:49:18;99514.88;;;9.10;69.37
84967;BME280;75275;51.348;12.358;2024-03-02T07:51:45;99514.81;;;9.21;69.50
84967;BME280;75275;51.348;12.358;2024-03-02T07:54:12;99511.44;;;9.29;69.00
84967;BME280;75275;51.348;12.358;2024-03-02T07:56:40;99512.44;;;9.43;69.00
84967;BME280;75275;51.348;12.358;2024-03-02T07:59:06;99513.50;;;9.47;68.75
84967;BME280;75275;51.348;12.358;2024-03-02T08:01:34;99515.38;;;9.52;68.20
84967;BME280;75275;51.348;12.358;2024-03-02T08:04:03;99511.81;;;9.51;68.89
84967;BME280;75275;51.348;12.358;2024-03-02T08:06:30;99516.13;;;9.62;68.53
84967;BME280;75275;51.348;12.358;2024-03-02T08:08:58;99511.16;;;9.64;67.81
84967;BME280;75275;51.348;12.358;2024-03-02T08:11:54;99520.66;;;9.72;68.02
84967;BME280;75275;51.348;12.358;2024-03-02T08:14:22;99516.28;;;9.71;67.64
84967;BME280;75275;51.348;12.358;2024-03-02T08:16:49;99519.84;;;9.72;67.96
84967;BME280;75275;51.348;12.358;2024-03-02T08:19:17;99522.06;;;9.70;68.13
84967;BME280;75275;51.348;12.358;2024-03-02T08:21:44;99521.44;;;9.78;67.73
84967;BME280;75275;51.348;12.358;2024-03-02T08:24:11;99523.00;;;9.84;68.06
84967;BME280;75275;51.348;12.358;2024-03-02T08:26:38;99518.66;;;9.83;67.72
84967;BME280;75275;51.348;12.358;2024-03-02T08:29:07;99514.69;;;9.94;67.49
84967;BME280;75275;51.348;12.358;2024-03-02T08:31:34;99519.91;;;9.96;67.81
84967;BME280;75275;51.348;12.358;2024-03-02T08:34:03;99518.94;;;10.05;66.89
84967;BME280;75275;51.348;12.358;2024-03-02T08:36:29;99523.09;;;10.03;67.76
84967;BME280;75275;51.348;12.358;2024-03-02T08:38:57;99521.41;;;10.07;67.11
84967;BME280;75275;51.348;12.358;2024-03-02T08:41:23;99533.41;;;10.11;67.22
84967;BME280;75275;51.348;12.358;2024-03-02T08:43:50;99531.97;;;10.19;66.65
84967;BME280;75275;51.348;12.358;2024-03-02T08:46:19;99533.28;;;10.26;66.15
84967;BME280;75275;51.348;12.358;2024-03-02T08:48:46;99534.63;;;10.29;66.08
84967;BME280;75275;51.348;12.358;2024-03-02T08:51:13;99541.69;;;10.35;66.20
84967;BME280;75275;51.348;12.358;2024-03-02T08:53:45;99542.81;;;10.53;65.95
84967;BME280;75275;51.348;12.358;2024-03-02T08:56:12;99541.88;;;10.63;65.01
84967;BME280;75275;51.348;12.358;2024-03-02T08:58:39;99547.31;;;10.68;64.73
84967;BME280;75275;51.348;12.358;2024-03-02T09:01:06;99549.66;;;10.55;65.08
84967;BME280;75275;51.348;12.358;2024-03-02T09:03:35;99545.66;;;10.67;65.09
84967;BME280;75275;51.348;12.358;2024-03-02T09:06:03;99547.16;;;10.78;64.72
84967;BME280;75275;51.348;12.358;2024-03-02T09:08:31;99543.47;;;11.06;63.79
84967;BME280;75275;51.348;12.358;2024-03-02T09:10:58;99547.72;;;11.18;63.29
84967;BME280;75275;51.348;12.358;2024-03-02T09:13:25;99552.22;;;11.46;62.78
84967;BME280;75275;51.348;12.358;2024-03-02T09:15:52;99551.28;;;11.70;61.51
84967;BME280;75275;51.348;12.358;2024-03-02T09:18:19;99548.44;;;11.75;61.24
84967;BME280;75275;51.348;12.358;2024-03-02T09:20:47;99557.53;;;11.56;61.68
84967;BME280;75275;51.348;12.358;2024-03-02T09:23:15;99559.75;;;11.54;62.02
84967;BME280;75275;51.348;12.358;2024-03-02T09:25:41;99556.38;;;11.44;62.10
84967;BME280;75275;51.348;12.358;2024-03-02T09:28:08;99562.81;;;11.53;62.37
84967;BME280;75275;51.348;12.358;2024-03-02T09:30:35;99562.72;;;11.58;62.04
84967;BME280;75275;51.348;12.358;2024-03-02T09:33:03;99563.19;;;11.46;62.21
84967;BME280;75275;51.348;12.358;2024-03-02T09:35:30;99563.31;;;11.74;61.84
84967;BME280;75275;51.348;12.358;2024-03-02T09:37:59;99561.34;;;11.93;61.05
84967;BME280;75275;51.348;12.358;2024-03-02T09:40:26;99566.16;;;11.82;61.36
84967;BME280;75275;51.348;12.358;2024-03-02T09:42:54;99567.56;;;11.80;61.59
84967;BME280;75275;51.348;12.358;2024-03-02T09:45:23;99572.13;;;11.71;61.46
84967;BME280;75275;51.348;12.358;2024-03-02T09:47:50;99576.66;;;11.62;61.81
84967;BME280;75275;51.348;12.358;2024-03-02T09:50:18;99580.75;;;11.64;61.88
84967;BME280;75275;51.348;12.358;2024-03-02T09:52:48;99578.91;;;11.60;62.46
84967;BME280;75275;51.348;12.358;2024-03-02T09:55:17;99576.75;;;11.56;62.52
84967;BME280;75275;51.348;12.358;2024-03-02T09:57:45;99581.38;;;11.42;62.84
84967;BME280;75275;51.348;12.358;2024-03-02T10:00:14;99572.09;;;11.38;63.29
84967;BME280;75275;51.348;12.358;2024-03-02T10:02:42;99576.41;;;11.44;62.99
84967;BME280;75275;51.348;12.358;2024-03-02T10:05:09;99583.38;;;11.55;63.08
84967;BME280;75275;51.348;12.358;2024-03-02T10:07:37;99570.50;;;11.70;62.50
84967;BME280;75275;51.348;12.358;2024-03-02T10:10:14;99566.47;;;12.14;61.63
84967;BME280;75275;51.348;12.358;2024-03-02T10:12:43;99564.47;;;12.61;59.65
84967;BME280;75275;51.348;12.358;2024-03-02T10:15:10;99568.56;;;13.13;58.21
84967;BME280;75275;51.348;12.358;2024-03-02T10:17:38;99555.53;;;13.55;56.42
84967;BME280;75275;51.348;12.358;2024-03-02T10:20:22;99552.13;;;14.12;54.35
84967;BME280;75275;51.348;12.358;2024-03-02T10:22:50;99551.44;;;14.60;53.16
84967;BME280;75275;51.348;12.358;2024-03-02T10:25:29;99547.63;;;15.30;51.25
84967;BME280;75275;51.348;12.358;2024-03-02T10:27:58;99551.50;;;15.99;48.55
84967;BME280;75275;51.348;12.358;2024-03-02T10:30:26;99541.75;;;15.93;48.33
84967;BME280;75275;51.348;12.358;2024-03-02T10:32:53;99542.47;;;16.28;47.24
84967;BME280;75275;51.348;12.358;2024-03-02T10:35:22;99542.72;;;15.97;47.18
84967;BME280;75275;51.348;12.358;2024-03-02T10:37:49;99538.56;;;15.47;48.94
84967;BME280;75275;51.348;12.358;2024-03-02T10:40:18;99536.78;;;15.69;48.12
84967;BME280;75275;51.348;12.358;2024-03-02T10:42:45;99531.63;;;16.14;47.19
84967;BME280;75275;51.348;12.358;2024-03-02T10:45:15;99539.59;;;16.07;47.06
84967;BME280;75275;51.348;12.358;2024-03-02T10:47:43;99533.66;;;15.87;47.72
84967;BME280;75275;51.348;12.358;2024-03-02T10:50:10;99524.53;;;15.61;49.07
84967;BME280;75275;51.348;12.358;2024-03-02T10:52:37;99522.28;;;15.63;47.53
84967;BME280;75275;51.348;12.358;2024-03-02T10:55:07;99527.81;;;15.46;47.97
84967;BME280;75275;51.348;12.358;2024-03-02T10:57:41;99525.69;;;15.16;48.89
84967;BME280;75275;51.348;12.358;2024-03-02T11:00:12;99529.03;;;14.61;48.63
84967;BME280;75275;51.348;12.358;2024-03-02T11:02:50;99525.19;;;14.31;50.43
84967;BME280;75275;51.348;12.358;2024-03-02T11:05:27;99524.38;;;14.31;50.57
84967;BME280;75275;51.348;12.358;2024-03-02T11:07:57;99519.94;;;14.21;50.19
84967;BME280;75275;51.348;12.358;2024-03-02T11:10:34;99523.94;;;14.15;50.41
84967;BME280;75275;51.348;12.358;2024-03-02T11:13:05;99514.38;;;14.12;50.33
84967;BME280;75275;51.348;12.358;2024-03-02T11:15:34;99516.13;;;14.08;50.77
84967;BME280;75275;51.348;12.358;2024-03-02T11:18:04;99512.56;;;14.08;50.60
84967;BME280;75275;51.348;12.358;2024-03-02T11:20:36;99519.44;;;14.19;50.64
84967;BME280;75275;51.348;12.358;2024-03-02T11:23:08;99514.53;;;14.16;50.62
84967;BME280;75275;51.348;12.358;2024-03-02T11:25:35;99521.06;;;14.20;51.21
84967;BME280;75275;51.348;12.358;2024-03-02T11:28:05;99510.53;;;14.22;51.32
84967;BME280;75275;51.348;12.358;2024-03-02T11:30:50;99507.66;;;14.27;51.21
84967;BME280;75275;51.348;12.358;2024-03-02T11:33:25;99503.41;;;14.21;51.46
84967;BME280;75275;51.348;12.358;2024-03-02T11:35:56;99508.41;;;14.19;51.31
84967;BME280;75275;51.348;12.358;2024-03-02T11:38:28;99498.72;;;14.30;50.99
84967;BME280;75275;51.348;12.358;2024-03-02T11:40:56;99508.47;;;14.36;50.91
84967;BME280;75275;51.348;12.358;2024-03-02T11:43:24;99500.06;;;14.41;50.13
84967;BME280;75275;51.348;12.358;2024-03-02T11:45:57;99500.72;;;14.38;50.59
84967;BME280;75275;51.348;12.358;2024-03-02T11:48:26;99493.88;;;14.27;50.90
84967;BME280;75275;51.348;12.358;2024-03-02T11:50:57;99485.09;;;14.25;50.42
84967;BME280;75275;51.348;12.358;2024-03-02T11:53:26;99489.69;;;14.38;50.41
84967;BME280;75275;51.348;12.358;2024-03-02T11:55:55;99496.34;;;14.46;50.26
84967;BME280;75275;51.348;12.358;2024-03-02T11:58:22;99486.84;;;14.61;50.10
84967;BME280;75275;51.348;12.358;2024-03-02T12:00:52;99492.38;;;14.61;50.38
84967;BME280;75275;51.348;12.358;2024-03-02T12:03:22;99492.19;;;14.66;49.99
84967;BME280;75275;51.348;12.358;2024-03-02T12:05:54;99496.78;;;14.88;49.55
84967;BME280;75275;51.348;12.358;2024-03-02T12:08:21;99484.59;;;14.80;49.04
84967;BME280;75275;51.348;12.358;2024-03-02T12:11:06;99483.31;;;14.86;48.99
84967;BME280;75275;51.348;12.358;2024-03-02T12:13:37;99483.34;;;15.04;49.20
84967;BME280;75275;51.348;12.358;2024-03-02T12:16:04;99479.25;;;15.10;48.17
84967;BME280;75275;51.348;12.358;2024-03-02T12:18:31;99472.94;;;15.01;47.68
84967;BME280;75275;51.348;12.358;2024-03-02T12:21:00;99467.91;;;14.85;48.85
84967;BME280;75275;51.348;12.358;2024-03-02T12:23:29;99470.63;;;14.68;48.82
84967;BME280;75275;51.348;12.358;2024-03-02T12:25:56;99473.53;;;14.63;48.78
84967;BME280;75275;51.348;12.358;2024-03-02T12:28:23;99470.00;;;14.71;48.12
84967;BME280;75275;51.348;12.358;2024-03-02T12:30:50;99469.03;;;14.67;48.18
84967;BME280;75275;51.348;12.358;2024-03-02T12:33:17;99464.63;;;14.66;47.30
84967;BME280;75275;51.348;12.358;2024-03-02T12:35:44;99465.25;;;14.63;47.61
84967;BME280;75275;51.348;12.358;2024-03-02T12:38:17;99473.53;;;14.63;47.38
84967;BME280;75275;51.348;12.358;2024-03-02T12:40:44;99478.06;;;14.59;48.22
84967;BME280;75275;51.348;12.358;2024-03-02T12:43:15;99471.94;;;14.71;49.17
84967;BME280;75275;51.348;12.358;2024-03-02T12:45:42;99471.94;;;14.79;48.94
84967;BME280;75275;51.348;12.358;2024-03-02T12:48:09;99472.75;;;14.71;49.63
84967;BME280;75275;51.348;12.358;2024-03-02T12:50:36;99469.03;;;14.67;49.28
84967;BME280;75275;51.348;12.358;2024-03-02T12:53:04;99459.13;;;14.75;49.34
84967;BME280;75275;51.348;12.358;2024-03-02T12:55:32;99461.06;;;14.91;48.96
84967;BME280;75275;51.348;12.358;2024-03-02T12:58:00;99450.06;;;15.00;48.26
84967;BME280;75275;51.348;12.358;2024-03-02T13:00:28;99448.75;;;14.98;47.75
84967;BME280;75275;51.348;12.358;2024-03-02T13:02:57;99456.38;;;14.83;46.48
84967;BME280;75275;51.348;12.358;2024-03-02T13:05:30;99444.03;;;14.89;46.73